createdAt,value
2019-02-27T00:01:37.724Z,84.42
2019-02-27T00:04:08.060Z,83.03
2019-02-27T00:06:38.470Z,82.90
2019-02-27T00:09:09.540Z,83.09
2019-02-27T00:11:45.852Z,83.72
2019-02-27T00:17:05.901Z,84.12
2019-02-27T00:19:38.040Z,84.30
2019-02-27T00:22:08.417Z,84.79
2019-02-27T00:24:38.753Z,84.91
2019-02-27T00:27:09.020Z,84.91
2019-02-27T00:29:39.303Z,85.11
2019-02-27T00:32:09.639Z,85.25
2019-02-27T00:34:40.015Z,85.02
2019-02-27T00:37:10.368Z,84.88
2019-02-27T00:39:40.731Z,84.68
2019-02-27T00:42:11.020Z,84.67
2019-02-27T00:44:41.300Z,84.87
2019-02-27T00:47:11.566Z,85.03
2019-02-27T00:49:41.844Z,85.39
2019-02-27T00:52:12.138Z,85.27
2019-02-27T00:54:42.412Z,85.24
2019-02-27T00:57:12.685Z,85.06
2019-02-27T00:59:42.975Z,85.13
2019-02-27T01:02:13.243Z,85.24
2019-02-27T01:04:43.586Z,85.33
2019-02-27T01:07:13.862Z,85.25
2019-02-27T01:09:44.241Z,85.28
2019-02-27T01:12:14.523Z,85.51
2019-02-27T01:14:44.816Z,85.73
2019-02-27T01:17:15.081Z,85.62
2019-02-27T01:19:45.429Z,85.41
2019-02-27T01:22:15.689Z,85.24
2019-02-27T01:24:49.923Z,85.25
2019-02-27T01:27:17.959Z,85.59
2019-02-27T01:29:51.604Z,85.76
2019-02-27T01:32:21.068Z,85.63
2019-02-27T01:34:51.367Z,85.61
2019-02-27T01:37:21.637Z,85.51
2019-02-27T01:39:51.960Z,85.42
2019-02-27T01:42:22.215Z,85.26
2019-02-27T01:44:52.513Z,85.25
2019-02-27T01:47:22.786Z,85.35
2019-02-27T01:49:53.099Z,85.40
2019-02-27T01:52:23.400Z,85.41
2019-02-27T01:54:54.528Z,85.40
2019-02-27T01:57:24.805Z,85.53
2019-02-27T01:59:56.166Z,85.70
2019-02-27T02:02:26.442Z,85.74
2019-02-27T02:04:57.808Z,85.56
2019-02-27T02:07:28.090Z,85.65
2019-02-27T02:09:58.379Z,85.45
2019-02-27T02:12:28.652Z,85.17
2019-02-27T02:15:17.985Z,84.90
2019-02-27T02:18:00.245Z,84.59
2019-02-27T02:20:48.658Z,84.94
2019-02-27T02:23:23.168Z,85.13
2019-02-27T02:26:16.387Z,85.69
2019-02-27T02:29:06.241Z,85.77
2019-02-27T02:31:41.751Z,85.53
2019-02-27T02:34:40.111Z,85.07
2019-02-27T02:37:45.225Z,84.78
2019-02-27T02:40:30.806Z,84.47
2019-02-27T02:43:19.347Z,84.59
2019-02-27T02:45:55.574Z,84.84
2019-02-27T02:48:57.361Z,85.04
2019-02-27T02:51:54.790Z,85.14
2019-02-27T02:54:41.543Z,85.33
2019-02-27T02:57:20.670Z,85.62
2019-02-27T02:59:59.484Z,85.76
2019-02-27T03:02:37.544Z,86.04
2019-02-27T03:05:16.951Z,85.99
2019-02-27T03:08:05.574Z,86.08
2019-02-27T03:10:42.882Z,85.96
2019-02-27T03:13:41.536Z,85.79
2019-02-27T03:16:16.226Z,86.08
2019-02-27T03:18:52.453Z,85.95
2019-02-27T03:21:29.023Z,86.00
2019-02-27T03:24:05.596Z,86.26
2019-02-27T03:27:02.371Z,86.55
2019-02-27T03:29:44.879Z,86.87
2019-02-27T03:32:21.223Z,87.00
2019-02-27T03:35:06.942Z,87.07
2019-02-27T03:37:48.437Z,87.16
2019-02-27T03:40:21.469Z,87.19
2019-02-27T03:43:28.525Z,87.17
2019-02-27T03:46:11.026Z,87.11
2019-02-27T03:48:50.294Z,86.99
2019-02-27T03:51:42.059Z,86.73
2019-02-27T03:54:34.227Z,86.38
2019-02-27T03:57:23.732Z,86.03
2019-02-27T04:00:03.219Z,85.79
2019-02-27T04:02:42.890Z,85.64
2019-02-27T04:05:28.515Z,85.57
2019-02-27T04:08:19.596Z,85.49
2019-02-27T04:10:49.968Z,85.27
2019-02-27T04:13:26.819Z,85.21
2019-02-27T04:15:53.632Z,85.40
2019-02-27T04:18:27.309Z,85.62
2019-02-27T04:20:55.815Z,85.81
2019-02-27T04:23:26.137Z,85.98
2019-02-27T04:25:56.431Z,86.17
2019-02-27T04:28:29.559Z,86.28
2019-02-27T04:30:58.688Z,86.38
2019-02-27T04:33:28.964Z,86.53
2019-02-27T04:35:59.251Z,86.68
2019-02-27T04:38:29.628Z,86.79
2019-02-27T04:40:59.947Z,86.82
2019-02-27T04:43:32.171Z,86.77
2019-02-27T04:46:02.304Z,86.60
2019-02-27T04:48:32.665Z,86.46
2019-02-27T04:51:02.946Z,86.33
2019-02-27T04:53:33.225Z,86.25
2019-02-27T04:56:04.218Z,86.12
2019-02-27T04:58:34.503Z,86.05
2019-02-27T05:01:04.789Z,86.18
2019-02-27T05:03:36.196Z,86.42
2019-02-27T05:06:06.482Z,86.61
2019-02-27T05:08:36.788Z,86.74
2019-02-27T05:11:07.118Z,86.88
2019-02-27T05:13:37.416Z,86.96
2019-02-27T05:16:08.653Z,87.00
2019-02-27T05:18:38.928Z,87.04
2019-02-27T05:21:09.313Z,87.08
2019-02-27T05:23:40.572Z,87.09
2019-02-27T05:26:10.853Z,87.10
2019-02-27T05:28:41.188Z,87.10
2019-02-27T05:31:11.475Z,87.11
2019-02-27T05:33:41.741Z,87.05
2019-02-27T05:36:12.014Z,87.04
2019-02-27T05:38:43.647Z,87.01
2019-02-27T05:41:15.498Z,86.97
2019-02-27T05:43:48.462Z,86.90
2019-02-27T05:46:17.760Z,86.83
2019-02-27T05:48:50.895Z,86.75
2019-02-27T05:51:20.279Z,86.68
2019-02-27T05:53:50.554Z,86.57
2019-02-27T05:56:20.857Z,86.48
2019-02-27T05:58:51.128Z,86.35
2019-02-27T06:01:21.578Z,86.21
2019-02-27T06:03:52.258Z,86.11
2019-02-27T06:06:23.319Z,85.99
2019-02-27T06:08:53.592Z,85.95
2019-02-27T06:11:23.868Z,85.88
2019-02-27T06:13:54.216Z,85.81
2019-02-27T06:16:24.499Z,85.75
2019-02-27T06:18:56.983Z,85.65
2019-02-27T06:21:27.433Z,85.54
2019-02-27T06:23:57.704Z,85.45
2019-02-27T06:26:32.193Z,85.40
2019-02-27T06:29:00.009Z,85.34
2019-02-27T06:31:30.286Z,85.34
2019-02-27T06:34:00.560Z,85.32
2019-02-27T06:36:30.904Z,85.25
2019-02-27T06:39:01.174Z,85.17
2019-02-27T06:41:33.115Z,85.11
2019-02-27T06:44:03.408Z,84.89
2019-02-27T06:46:33.715Z,84.72
2019-02-27T06:49:03.975Z,84.47
2019-02-27T06:51:35.778Z,84.37
2019-02-27T06:54:06.349Z,84.33
2019-02-27T06:56:37.716Z,84.21
2019-02-27T06:59:08.011Z,83.96
2019-02-27T07:01:38.345Z,83.66
2019-02-27T07:04:08.646Z,83.39
2019-02-27T07:06:38.926Z,83.38
2019-02-27T07:09:11.637Z,83.18
2019-02-27T07:11:44.891Z,83.12
2019-02-27T07:14:14.576Z,82.79
2019-02-27T07:16:44.949Z,82.77
2019-02-27T07:19:15.887Z,82.65
2019-02-27T07:21:47.848Z,82.57
2019-02-27T07:24:18.204Z,82.65
2019-02-27T07:26:50.281Z,82.32
2019-02-27T07:29:21.930Z,82.17
2019-02-27T07:31:53.621Z,82.08
2019-02-27T07:34:23.886Z,81.72
2019-02-27T07:36:54.202Z,81.04
2019-02-27T07:39:24.481Z,80.83
2019-02-27T07:41:54.788Z,80.99
2019-02-27T07:44:25.071Z,80.96
2019-02-27T07:46:57.487Z,81.20
2019-02-27T07:49:28.369Z,80.88
2019-02-27T07:51:59.326Z,80.87
2019-02-27T07:54:29.670Z,78.97
2019-02-27T07:56:59.972Z,75.65
2019-02-27T07:59:32.174Z,71.60
2019-02-27T08:02:03.189Z,70.08
2019-02-27T08:04:33.591Z,67.40
2019-02-27T08:07:04.281Z,64.46
2019-02-27T08:09:34.573Z,62.40
2019-02-27T08:12:06.372Z,61.91
2019-02-27T08:14:37.240Z,60.97
2019-02-27T08:17:17.378Z,60.39
2019-02-27T08:19:42.880Z,58.20
2019-02-27T08:22:12.258Z,57.99
2019-02-27T08:24:42.644Z,58.11
2019-02-27T08:27:12.983Z,56.87
2019-02-27T08:29:43.247Z,56.49
2019-02-27T08:32:13.520Z,55.32
2019-02-27T08:34:43.945Z,53.94
2019-02-27T08:37:14.227Z,54.80
2019-02-27T08:39:45.257Z,54.83
2019-02-27T08:42:15.864Z,54.42
2019-02-27T08:44:46.667Z,54.50
2019-02-27T08:47:16.881Z,54.55
2019-02-27T08:49:47.159Z,55.30
2019-02-27T08:52:17.458Z,53.50
2019-02-27T08:54:47.759Z,55.46
2019-02-27T08:57:18.462Z,55.20
2019-02-27T08:59:48.767Z,56.98
2019-02-27T09:02:19.052Z,57.73
2019-02-27T09:04:49.320Z,59.91
2019-02-27T09:07:19.596Z,62.10
2019-02-27T09:09:51.620Z,65.21
2019-02-27T09:12:21.937Z,67.13
2019-02-27T09:14:52.305Z,69.29
2019-02-27T09:17:26.850Z,71.64
2019-02-27T09:19:54.852Z,73.69
2019-02-27T09:22:25.131Z,74.75
2019-02-27T09:24:57.205Z,75.72
2019-02-27T09:27:27.545Z,75.21
2019-02-27T09:29:57.802Z,76.12
2019-02-27T09:32:28.068Z,76.82
2019-02-27T09:34:59.602Z,77.21
2019-02-27T09:37:30.553Z,76.99
2019-02-27T09:40:04.810Z,77.94
2019-02-27T09:42:35.018Z,77.65
2019-02-27T09:45:08.235Z,77.73
2019-02-27T09:47:39.610Z,78.28
2019-02-27T09:50:13.841Z,78.50
2019-02-27T09:52:43.655Z,79.01
2019-02-27T09:55:13.929Z,79.25
2019-02-27T09:57:44.342Z,79.16
2019-02-27T10:00:33.395Z,79.31
2019-02-27T10:03:03.695Z,79.02
2019-02-27T10:05:36.763Z,79.47
2019-02-27T10:08:07.584Z,79.59
2019-02-27T10:10:44.943Z,79.01
2019-02-27T10:13:14.062Z,79.15
2019-02-27T10:15:44.463Z,79.01
2019-02-27T10:18:18.042Z,79.11
2019-02-27T10:20:46.706Z,79.07
2019-02-27T10:23:16.991Z,79.08
2019-02-27T10:25:47.263Z,78.52
2019-02-27T10:28:17.577Z,78.42
2019-02-27T10:30:50.108Z,78.79
2019-02-27T10:33:19.878Z,78.85
2019-02-27T10:35:50.168Z,78.82
2019-02-27T10:38:20.460Z,78.39
2019-02-27T10:44:37.069Z,78.72
2019-02-27T10:47:07.380Z,78.12
2019-02-27T10:49:38.321Z,78.88
2019-02-27T10:52:08.810Z,78.32
2019-02-27T10:54:39.955Z,77.83
2019-02-27T10:57:12.305Z,77.79
2019-02-27T10:59:42.770Z,77.85
2019-02-27T11:02:13.327Z,77.26
2019-02-27T11:04:43.608Z,76.79
2019-02-27T11:07:15.915Z,77.27
2019-02-27T11:09:45.902Z,76.90
2019-02-27T11:12:16.169Z,76.86
2019-02-27T11:14:46.434Z,76.01
2019-02-27T11:17:16.793Z,76.11
2019-02-27T11:19:47.057Z,75.67
2019-02-27T11:22:17.339Z,76.00
2019-02-27T11:24:49.494Z,75.61
2019-02-27T11:27:20.779Z,75.68
2019-02-27T11:29:51.137Z,75.76
2019-02-27T11:32:23.869Z,75.63
2019-02-27T11:34:53.486Z,75.84
2019-02-27T11:37:23.838Z,75.45
2019-02-27T11:39:54.111Z,75.49
2019-02-27T11:42:26.018Z,75.60
2019-02-27T11:44:56.299Z,74.95
2019-02-27T11:47:26.640Z,74.61
2019-02-27T11:49:56.917Z,73.94
2019-02-27T11:52:28.647Z,74.08
2019-02-27T11:54:59.194Z,73.33
2019-02-27T11:57:30.520Z,73.66
2019-02-27T12:00:01.729Z,73.15
2019-02-27T12:02:37.009Z,72.12
2019-02-27T12:05:08.328Z,70.64
2019-02-27T12:07:38.610Z,70.39
2019-02-27T12:10:15.043Z,69.32
2019-02-27T12:12:45.340Z,69.80
2019-02-27T12:15:17.562Z,68.83
2019-02-27T12:17:47.896Z,68.58
2019-02-27T12:20:20.276Z,68.35
2019-02-27T12:22:50.577Z,68.82
2019-02-27T12:25:26.736Z,69.14
2019-02-27T12:27:56.987Z,68.07
2019-02-27T12:30:30.867Z,68.30
2019-02-27T12:33:01.226Z,67.85
2019-02-27T12:35:34.015Z,67.33
2019-02-27T12:38:08.215Z,66.39
2019-02-27T12:40:37.132Z,66.54
2019-02-27T12:43:07.587Z,66.71
2019-02-27T12:45:37.852Z,66.22
2019-02-27T12:48:08.205Z,66.18
2019-02-27T12:50:38.570Z,65.92
2019-02-27T12:53:08.889Z,65.78
2019-02-27T12:55:39.167Z,65.53
2019-02-27T12:58:09.443Z,65.08
2019-02-27T13:00:42.525Z,64.87
2019-02-27T13:03:12.024Z,64.09
2019-02-27T13:05:42.386Z,64.17
2019-02-27T13:08:12.683Z,64.56
2019-02-27T13:10:43.028Z,64.35
2019-02-27T13:13:13.367Z,64.86
2019-02-27T13:15:43.630Z,65.35
2019-02-27T13:18:13.934Z,65.46
2019-02-27T13:20:45.676Z,65.17
2019-02-27T13:23:16.254Z,65.39
2019-02-27T13:25:46.594Z,64.79
2019-02-27T13:28:16.891Z,64.92
2019-02-27T13:30:47.210Z,65.50
2019-02-27T13:33:17.543Z,65.60
2019-02-27T13:35:47.836Z,65.02
2019-02-27T13:38:18.685Z,64.23
2019-02-27T13:40:49.062Z,63.81
2019-02-27T13:43:19.367Z,63.47
2019-02-27T13:45:49.739Z,64.15
2019-02-27T13:48:20.106Z,63.63
2019-02-27T13:50:50.391Z,63.15
2019-02-27T13:53:25.783Z,62.74
2019-02-27T13:55:52.732Z,62.70
2019-02-27T13:58:23.298Z,62.45
2019-02-27T14:00:54.500Z,62.42
2019-02-27T14:03:25.014Z,62.16
2019-02-27T14:05:55.380Z,62.66
2019-02-27T14:08:25.689Z,62.03
2019-02-27T14:10:55.945Z,62.25
2019-02-27T14:13:26.312Z,61.82
2019-02-27T14:15:58.057Z,61.69
2019-02-27T14:18:28.586Z,62.04
2019-02-27T14:21:01.262Z,62.96
2019-02-27T14:23:30.931Z,61.99
2019-02-27T14:26:05.349Z,62.21
2019-02-27T14:28:33.372Z,62.63
2019-02-27T14:31:03.667Z,63.02
2019-02-27T14:33:34.069Z,63.09
2019-02-27T14:36:08.190Z,61.42
2019-02-27T14:38:36.451Z,61.88
2019-02-27T14:41:06.787Z,61.15
2019-02-27T14:43:37.262Z,61.78
2019-02-27T14:46:07.610Z,62.03
2019-02-27T14:48:37.918Z,61.48
2019-02-27T14:51:11.070Z,60.87
2019-02-27T14:53:42.691Z,61.59
2019-02-27T14:56:13.272Z,61.30
2019-02-27T14:58:44.006Z,60.82
2019-02-27T15:01:15.078Z,59.80
2019-02-27T15:03:45.822Z,60.70
2019-02-27T15:06:19.248Z,61.02
2019-02-27T15:12:39.124Z,60.83
2019-02-27T15:15:15.851Z,60.14
2019-02-27T15:17:46.541Z,59.68
2019-02-27T15:20:19.323Z,60.11
2019-02-27T15:22:52.529Z,59.30
2019-02-27T15:25:23.786Z,60.27
2019-02-27T15:27:58.306Z,59.98
2019-02-27T15:30:58.293Z,60.03
2019-02-27T15:33:29.232Z,60.60
2019-02-27T15:36:00.145Z,60.99
2019-02-27T15:38:30.555Z,61.22
2019-02-27T15:41:03.209Z,61.56
2019-02-27T15:43:34.120Z,61.49
2019-02-27T15:46:04.960Z,61.80
2019-02-27T15:48:40.468Z,62.17
2019-02-27T15:51:12.380Z,61.93
2019-02-27T15:57:57.056Z,62.48
2019-02-27T16:00:27.981Z,63.21
2019-02-27T16:02:58.395Z,63.22
2019-02-27T16:05:31.387Z,63.66
2019-02-27T16:08:01.482Z,64.22
2019-02-27T16:10:32.381Z,64.63
2019-02-27T16:13:02.811Z,65.60
2019-02-27T16:15:33.453Z,65.93
2019-02-27T16:18:05.285Z,66.27
2019-02-27T16:20:37.018Z,66.67
2019-02-27T16:23:19.609Z,67.31
2019-02-27T16:36:54.679Z,68.42
2019-02-27T16:40:23.467Z,68.73
2019-02-27T16:43:14.412Z,68.99
2019-02-27T16:45:44.878Z,69.28
2019-02-27T16:48:15.166Z,69.79
2019-02-27T16:50:45.713Z,69.66
2019-02-27T16:53:19.312Z,69.69
2019-02-27T16:55:49.720Z,70.00
2019-02-27T16:58:20.147Z,70.36
2019-02-27T17:00:54.229Z,70.37
2019-02-27T17:03:24.409Z,70.56
2019-02-27T17:05:54.687Z,70.75
2019-02-27T17:08:25.851Z,71.06
2019-02-27T17:10:59.633Z,71.09
2019-02-27T17:13:29.718Z,71.20
2019-02-27T17:16:00.125Z,71.67
2019-02-27T17:18:30.547Z,71.86
2019-02-27T17:21:01.350Z,71.99
2019-02-27T17:23:32.667Z,71.90
2019-02-27T17:26:04.288Z,72.29
2019-02-27T17:28:34.944Z,72.23
2019-02-27T17:31:11.721Z,72.33
2019-02-27T17:33:38.703Z,72.41
2019-02-27T17:36:09.201Z,72.50
2019-02-27T17:38:39.541Z,72.79
2019-02-27T17:41:11.616Z,73.00
2019-02-27T17:43:42.410Z,72.93
2019-02-27T17:46:12.654Z,73.45
2019-02-27T17:48:43.307Z,73.60
2019-02-27T17:51:15.731Z,73.51
2019-02-27T17:53:47.704Z,73.68
2019-02-27T17:56:18.050Z,73.82
2019-02-27T17:58:51.098Z,73.97
2019-02-27T18:01:24.916Z,74.06
2019-02-27T18:03:55.976Z,74.30
2019-02-27T18:06:26.817Z,74.43
2019-02-27T18:09:01.089Z,74.33
2019-02-27T18:11:33.023Z,74.23
2019-02-27T18:14:16.141Z,74.41
2019-02-27T18:16:46.486Z,74.33
2019-02-27T18:19:17.263Z,74.42
2019-02-27T18:21:48.075Z,74.28
2019-02-27T18:24:19.484Z,74.30
2019-02-27T18:26:51.353Z,74.20
2019-02-27T18:29:26.014Z,73.94
2019-02-27T18:32:50.546Z,74.18
2019-02-27T18:35:21.503Z,74.02
2019-02-27T18:41:45.686Z,73.25
2019-02-27T18:48:37.245Z,73.06
2019-02-27T18:54:54.733Z,73.19
2019-02-27T19:01:37.746Z,73.57
2019-02-27T19:20:33.754Z,72.95
2019-02-27T19:23:06.031Z,72.50
2019-02-27T19:25:41.831Z,72.85
2019-02-27T19:28:12.786Z,73.17
2019-02-27T19:30:43.883Z,73.45
2019-02-27T19:33:17.347Z,73.42
2019-02-27T19:35:47.640Z,73.28
2019-02-27T19:38:23.005Z,73.09
2019-02-27T19:40:58.352Z,72.80
2019-02-27T19:43:48.540Z,72.71
2019-02-27T19:46:20.334Z,72.61
2019-02-27T19:48:50.934Z,72.46
2019-02-27T19:51:21.975Z,72.73
2019-02-27T19:53:53.372Z,72.83
2019-02-27T19:56:25.223Z,72.88
2019-02-27T19:59:02.975Z,72.84
2019-02-27T20:01:40.433Z,72.81
2019-02-27T20:04:10.258Z,72.56
2019-02-27T20:06:45.657Z,72.48
2019-02-27T20:09:20.174Z,72.46
2019-02-27T20:11:50.390Z,72.07
2019-02-27T20:14:20.848Z,71.85
2019-02-27T20:16:54.977Z,71.93
2019-02-27T20:19:28.232Z,72.04
2019-02-27T20:21:55.190Z,71.85
2019-02-27T20:37:40.210Z,71.22
2019-02-27T20:43:35.266Z,70.89
2019-02-27T20:50:11.829Z,70.71
2019-02-27T20:52:42.778Z,70.57
2019-02-27T20:55:13.252Z,70.94
2019-02-27T20:57:45.292Z,70.96
2019-02-27T21:00:19.217Z,70.82
2019-02-27T21:02:53.478Z,70.71
2019-02-27T21:05:24.959Z,70.54
2019-02-27T21:08:00.909Z,70.65
2019-02-27T21:10:34.864Z,70.73
2019-02-27T21:13:05.884Z,70.74
2019-02-27T21:15:36.168Z,70.74
2019-02-27T21:18:06.254Z,70.93
2019-02-27T21:20:36.529Z,70.97
2019-02-27T21:23:09.211Z,70.86
2019-02-27T21:29:18.178Z,71.31
2019-02-27T21:31:48.771Z,71.43
2019-02-27T21:34:20.140Z,71.61
2019-02-27T21:36:50.610Z,71.62
2019-02-27T21:39:22.585Z,71.65
2019-02-27T21:41:52.973Z,71.74
2019-02-27T21:44:25.700Z,71.73
2019-02-27T21:46:57.969Z,71.37
2019-02-27T21:49:31.626Z,71.42
2019-02-27T21:52:00.395Z,71.10
2019-02-27T21:54:30.801Z,71.09
2019-02-27T21:57:01.193Z,71.00
2019-02-27T21:59:31.466Z,71.31
2019-02-27T22:02:03.762Z,71.02
2019-02-27T22:04:34.405Z,70.94
2019-02-27T22:07:04.776Z,71.04
2019-02-27T22:09:35.107Z,71.15
2019-02-27T22:12:07.205Z,71.22
2019-02-27T22:14:37.433Z,71.35
2019-02-27T22:17:07.738Z,71.33
2019-02-27T22:19:39.140Z,71.45
2019-02-27T22:22:10.974Z,71.54
2019-02-27T22:24:41.877Z,71.72
2019-02-27T22:27:13.474Z,71.54
2019-02-27T22:29:46.757Z,71.57
2019-02-27T22:32:17.082Z,71.54
2019-02-27T22:34:47.354Z,71.50
2019-02-27T22:37:18.572Z,71.50
2019-02-27T22:39:49.062Z,71.41
2019-02-27T22:42:19.448Z,71.17
2019-02-27T22:44:49.866Z,71.26
2019-02-27T22:47:21.592Z,71.25
2019-02-27T22:49:52.190Z,71.04
2019-02-27T22:52:22.729Z,71.08
2019-02-27T22:54:53.063Z,71.06
2019-02-27T22:57:23.558Z,71.00
2019-02-27T22:59:53.833Z,71.08
2019-02-27T23:02:24.433Z,71.23
2019-02-27T23:04:54.771Z,71.39
2019-02-27T23:07:25.083Z,71.38
2019-02-27T23:09:57.514Z,71.06
2019-02-27T23:12:27.475Z,70.73
2019-02-27T23:14:57.820Z,70.51
2019-02-27T23:17:28.157Z,70.50
2019-02-27T23:19:58.423Z,70.63
2019-02-27T23:22:28.899Z,70.65
2019-02-27T23:24:59.941Z,70.53
2019-02-27T23:27:30.291Z,70.74
2019-02-27T23:30:00.637Z,70.70
2019-02-27T23:32:30.953Z,70.58
2019-02-27T23:35:01.321Z,70.43
2019-02-27T23:37:32.989Z,70.20
2019-02-27T23:40:03.394Z,70.19
2019-02-27T23:42:33.731Z,70.29
2019-02-27T23:45:05.455Z,70.32
2019-02-27T23:47:35.726Z,70.27
2019-02-27T23:50:10.885Z,70.21
2019-02-27T23:52:41.464Z,70.18
2019-02-27T23:55:11.778Z,70.08
2019-02-27T23:57:42.204Z,69.95
